sensor_id;sensor_type;location;lat;lon;timestamp;P1;P2;P0
55549;PMS7003;41397;49.972;18.944;2023-04-25T00:01:22;23;23;15
55549;PMS7003;41397;49.972;18.944;2023-04-25T00:04:26;16;16;13
55549;PMS7003;41397;49.972;18.944;2023-04-25T00:07:30;19;19;13
55549;PMS7003;41397;49.972;18.944;2023-04-25T00:10:32;15;15;14
55549;PMS7003;41397;49.972;18.944;2023-04-25T00:13:33;19;19;12
55549;PMS7003;41397;49.972;18.944;2023-04-25T00:16:35;22;22;16
55549;PMS7003;41397;49.972;18.944;2023-04-25T00:19:36;17;17;12
55549;PMS7003;41397;49.972;18.944;2023-04-25T00:22:38;16;16;13
55549;PMS7003;41397;49.972;18.944;2023-04-25T00:25:40;22;12;10
55549;PMS7003;41397;49.972;18.944;2023-04-25T00:28:41;13;13;11
55549;PMS7003;41397;49.972;18.944;2023-04-25T00:31:43;12;12;9
55549;PMS7003;41397;49.972;18.944;2023-04-25T00:34:44;9;9;9
55549;PMS7003;41397;49.972;18.944;2023-04-25T00:37:45;10;10;7
55549;PMS7003;41397;49.972;18.944;2023-04-25T00:40:49;10;10;7
55549;PMS7003;41397;49.972;18.944;2023-04-25T00:43:50;12;12;8
55549;PMS7003;41397;49.972;18.944;2023-04-25T00:46:54;10;10;8
55549;PMS7003;41397;49.972;18.944;2023-04-25T00:49:56;10;10;7
55549;PMS7003;41397;49.972;18.944;2023-04-25T00:52:57;14;14;9
55549;PMS7003;41397;49.972;18.944;2023-04-25T00:55:59;14;14;10
55549;PMS7003;41397;49.972;18.944;2023-04-25T00:59:00;14;13;9
55549;PMS7003;41397;49.972;18.944;2023-04-25T01:02:01;12;12;9
55549;PMS7003;41397;49.972;18.944;2023-04-25T01:05:05;9;9;8
55549;PMS7003;41397;49.972;18.944;2023-04-25T01:08:07;12;12;9
55549;PMS7003;41397;49.972;18.944;2023-04-25T01:11:09;12;12;7
55549;PMS7003;41397;49.972;18.944;2023-04-25T01:14:10;9;9;7
55549;PMS7003;41397;49.972;18.944;2023-04-25T01:17:13;7;7;7
55549;PMS7003;41397;49.972;18.944;2023-04-25T01:20:16;7;7;4
55549;PMS7003;41397;49.972;18.944;2023-04-25T01:23:20;7;7;6
55549;PMS7003;41397;49.972;18.944;2023-04-25T01:26:22;6;6;4
55549;PMS7003;41397;49.972;18.944;2023-04-25T01:29:25;5;5;5
55549;PMS7003;41397;49.972;18.944;2023-04-25T01:32:27;7;7;5
55549;PMS7003;41397;49.972;18.944;2023-04-25T01:35:29;7;7;6
55549;PMS7003;41397;49.972;18.944;2023-04-25T01:38:32;7;7;5
55549;PMS7003;41397;49.972;18.944;2023-04-25T01:41:34;10;10;6
55549;PMS7003;41397;49.972;18.944;2023-04-25T01:44:35;6;6;5
55549;PMS7003;41397;49.972;18.944;2023-04-25T01:47:37;7;7;6
55549;PMS7003;41397;49.972;18.944;2023-04-25T01:50:40;5;5;4
55549;PMS7003;41397;49.972;18.944;2023-04-25T01:53:42;9;9;7
55549;PMS7003;41397;49.972;18.944;2023-04-25T01:56:49;6;6;5
55549;PMS7003;41397;49.972;18.944;2023-04-25T02:00:03;6;6;5
55549;PMS7003;41397;49.972;18.944;2023-04-25T02:03:05;6;6;6
55549;PMS7003;41397;49.972;18.944;2023-04-25T02:06:06;3;3;2
55549;PMS7003;41397;49.972;18.944;2023-04-25T02:09:08;4;4;3
55549;PMS7003;41397;49.972;18.944;2023-04-25T02:12:09;5;5;4
55549;PMS7003;41397;49.972;18.944;2023-04-25T02:15:11;7;7;4
55549;PMS7003;41397;49.972;18.944;2023-04-25T02:18:13;6;6;4
55549;PMS7003;41397;49.972;18.944;2023-04-25T02:21:17;6;6;4
55549;PMS7003;41397;49.972;18.944;2023-04-25T02:24:19;7;7;7
55549;PMS7003;41397;49.972;18.944;2023-04-25T02:27:20;6;6;5
55549;PMS7003;41397;49.972;18.944;2023-04-25T02:30:22;4;4;3
55549;PMS7003;41397;49.972;18.944;2023-04-25T02:33:23;7;7;6
55549;PMS7003;41397;49.972;18.944;2023-04-25T02:36:25;4;4;3
55549;PMS7003;41397;49.972;18.944;2023-04-25T02:39:28;5;5;4
55549;PMS7003;41397;49.972;18.944;2023-04-25T02:42:29;4;4;2
55549;PMS7003;41397;49.972;18.944;2023-04-25T02:45:46;3;3;3
55549;PMS7003;41397;49.972;18.944;2023-04-25T02:48:49;4;4;2
55549;PMS7003;41397;49.972;18.944;2023-04-25T02:51:51;4;4;3
55549;PMS7003;41397;49.972;18.944;2023-04-25T02:54:52;6;6;3
55549;PMS7003;41397;49.972;18.944;2023-04-25T02:57:54;7;7;6
55549;PMS7003;41397;49.972;18.944;2023-04-25T03:00:58;3;3;1
55549;PMS7003;41397;49.972;18.944;2023-04-25T03:04:00;6;6;4
55549;PMS7003;41397;49.972;18.944;2023-04-25T03:07:02;5;5;3
55549;PMS7003;41397;49.972;18.944;2023-04-25T03:10:04;8;8;6
55549;PMS7003;41397;49.972;18.944;2023-04-25T03:13:06;5;5;3
55549;PMS7003;41397;49.972;18.944;2023-04-25T03:16:08;6;6;4
55549;PMS7003;41397;49.972;18.944;2023-04-25T03:19:09;4;4;3
55549;PMS7003;41397;49.972;18.944;2023-04-25T03:22:11;4;4;3
55549;PMS7003;41397;49.972;18.944;2023-04-25T03:25:13;5;5;3
55549;PMS7003;41397;49.972;18.944;2023-04-25T03:28:15;3;3;2
55549;PMS7003;41397;49.972;18.944;2023-04-25T03:31:16;9;9;5
55549;PMS7003;41397;49.972;18.944;2023-04-25T03:34:17;5;5;4
55549;PMS7003;41397;49.972;18.944;2023-04-25T03:37:21;5;5;4
55549;PMS7003;41397;49.972;18.944;2023-04-25T03:40:22;4;4;3
55549;PMS7003;41397;49.972;18.944;2023-04-25T03:43:24;7;7;4
55549;PMS7003;41397;49.972;18.944;2023-04-25T03:46:25;7;7;5
55549;PMS7003;41397;49.972;18.944;2023-04-25T03:49:29;2;2;1
55549;PMS7003;41397;49.972;18.944;2023-04-25T03:52:30;3;3;3
55549;PMS7003;41397;49.972;18.944;2023-04-25T03:55:32;5;5;4
55549;PMS7003;41397;49.972;18.944;2023-04-25T03:58:35;0;0;0
55549;PMS7003;41397;49.972;18.944;2023-04-25T04:01:37;3;3;3
55549;PMS7003;41397;49.972;18.944;2023-04-25T04:04:38;5;5;4
55549;PMS7003;41397;49.972;18.944;2023-04-25T04:07:40;3;3;3
55549;PMS7003;41397;49.972;18.944;2023-04-25T04:10:44;1;1;1
55549;PMS7003;41397;49.972;18.944;2023-04-25T04:13:46;4;4;4
55549;PMS7003;41397;49.972;18.944;2023-04-25T04:16:47;5;5;5
55549;PMS7003;41397;49.972;18.944;2023-04-25T04:19:48;4;4;3
55549;PMS7003;41397;49.972;18.944;2023-04-25T04:22:50;3;3;3
55549;PMS7003;41397;49.972;18.944;2023-04-25T04:25:53;5;5;4
55549;PMS7003;41397;49.972;18.944;2023-04-25T04:28:57;3;3;3
55549;PMS7003;41397;49.972;18.944;2023-04-25T04:32:00;5;5;3
55549;PMS7003;41397;49.972;18.944;2023-04-25T04:35:02;5;3;1
55549;PMS7003;41397;49.972;18.944;2023-04-25T04:38:05;5;5;5
55549;PMS7003;41397;49.972;18.944;2023-04-25T04:41:06;4;4;2
55549;PMS7003;41397;49.972;18.944;2023-04-25T04:44:08;5;5;4
55549;PMS7003;41397;49.972;18.944;2023-04-25T04:47:10;3;3;3
55549;PMS7003;41397;49.972;18.944;2023-04-25T04:50:15;3;3;3
55549;PMS7003;41397;49.972;18.944;2023-04-25T04:53:16;2;2;2
55549;PMS7003;41397;49.972;18.944;2023-04-25T04:56:18;2;2;2
55549;PMS7003;41397;49.972;18.944;2023-04-25T04:59:24;8;8;5
55549;PMS7003;41397;49.972;18.944;2023-04-25T05:02:25;3;3;3
55549;PMS7003;41397;49.972;18.944;2023-04-25T05:08:47;2;2;0
55549;PMS7003;41397;49.972;18.944;2023-04-25T05:11:50;6;6;4
55549;PMS7003;41397;49.972;18.944;2023-04-25T05:14:53;4;4;3
55549;PMS7003;41397;49.972;18.944;2023-04-25T05:17:54;8;8;5
55549;PMS7003;41397;49.972;18.944;2023-04-25T05:20:56;5;5;4
55549;PMS7003;41397;49.972;18.944;2023-04-25T05:23:57;7;7;7
55549;PMS7003;41397;49.972;18.944;2023-04-25T05:26:59;5;5;4
55549;PMS7003;41397;49.972;18.944;2023-04-25T05:30:00;6;6;5
55549;PMS7003;41397;49.972;18.944;2023-04-25T05:33:01;6;6;4
55549;PMS7003;41397;49.972;18.944;2023-04-25T05:36:03;4;4;3
55549;PMS7003;41397;49.972;18.944;2023-04-25T05:39:05;4;4;3
55549;PMS7003;41397;49.972;18.944;2023-04-25T05:42:18;6;6;5
55549;PMS7003;41397;49.972;18.944;2023-04-25T05:45:19;6;6;3
55549;PMS7003;41397;49.972;18.944;2023-04-25T05:48:20;5;5;4
55549;PMS7003;41397;49.972;18.944;2023-04-25T05:51:23;3;3;3
55549;PMS7003;41397;49.972;18.944;2023-04-25T05:54:26;8;8;4
55549;PMS7003;41397;49.972;18.944;2023-04-25T05:57:27;2;2;2
55549;PMS7003;41397;49.972;18.944;2023-04-25T06:00:28;4;4;2
55549;PMS7003;41397;49.972;18.944;2023-04-25T06:03:30;6;6;5
55549;PMS7003;41397;49.972;18.944;2023-04-25T06:06:34;5;5;4
55549;PMS7003;41397;49.972;18.944;2023-04-25T06:09:35;4;4;4
55549;PMS7003;41397;49.972;18.944;2023-04-25T06:12:39;4;4;3
55549;PMS7003;41397;49.972;18.944;2023-04-25T06:15:41;4;4;3
55549;PMS7003;41397;49.972;18.944;2023-04-25T06:18:42;5;5;3
55549;PMS7003;41397;49.972;18.944;2023-04-25T06:21:44;3;3;3
55549;PMS7003;41397;49.972;18.944;2023-04-25T06:24:46;4;4;2
55549;PMS7003;41397;49.972;18.944;2023-04-25T06:27:47;3;3;2
55549;PMS7003;41397;49.972;18.944;2023-04-25T06:30:50;6;6;5
55549;PMS7003;41397;49.972;18.944;2023-04-25T06:33:51;9;9;6
55549;PMS7003;41397;49.972;18.944;2023-04-25T06:36:55;4;4;4
55549;PMS7003;41397;49.972;18.944;2023-04-25T06:39:57;4;4;3
55549;PMS7003;41397;49.972;18.944;2023-04-25T06:42:58;4;4;4
55549;PMS7003;41397;49.972;18.944;2023-04-25T06:46:00;9;9;6
55549;PMS7003;41397;49.972;18.944;2023-04-25T06:49:04;5;5;4
55549;PMS7003;41397;49.972;18.944;2023-04-25T06:52:06;5;5;4
55549;PMS7003;41397;49.972;18.944;2023-04-25T06:55:11;5;5;5
55549;PMS7003;41397;49.972;18.944;2023-04-25T06:58:12;6;6;4
55549;PMS7003;41397;49.972;18.944;2023-04-25T07:01:13;7;7;6
55549;PMS7003;41397;49.972;18.944;2023-04-25T07:04:15;4;4;3
55549;PMS7003;41397;49.972;18.944;2023-04-25T07:07:17;6;6;5
55549;PMS7003;41397;49.972;18.944;2023-04-25T07:10:18;5;5;4
55549;PMS7003;41397;49.972;18.944;2023-04-25T07:13:23;4;4;4
55549;PMS7003;41397;49.972;18.944;2023-04-25T07:16:24;7;7;6
55549;PMS7003;41397;49.972;18.944;2023-04-25T07:19:26;4;4;3
55549;PMS7003;41397;49.972;18.944;2023-04-25T07:22:39;7;7;6
55549;PMS7003;41397;49.972;18.944;2023-04-25T07:25:41;5;5;4
55549;PMS7003;41397;49.972;18.944;2023-04-25T07:28:42;3;3;2
55549;PMS7003;41397;49.972;18.944;2023-04-25T07:31:44;4;4;3
55549;PMS7003;41397;49.972;18.944;2023-04-25T07:34:47;5;5;3
55549;PMS7003;41397;49.972;18.944;2023-04-25T07:37:49;4;4;4
55549;PMS7003;41397;49.972;18.944;2023-04-25T07:40:51;9;9;5
55549;PMS7003;41397;49.972;18.944;2023-04-25T07:43:53;7;7;6
55549;PMS7003;41397;49.972;18.944;2023-04-25T07:46:55;7;7;4
55549;PMS7003;41397;49.972;18.944;2023-04-25T07:49:57;6;6;5
55549;PMS7003;41397;49.972;18.944;2023-04-25T07:52:58;9;9;6
55549;PMS7003;41397;49.972;18.944;2023-04-25T07:56:00;9;9;5
55549;PMS7003;41397;49.972;18.944;2023-04-25T07:59:03;5;5;4
55549;PMS7003;41397;49.972;18.944;2023-04-25T08:02:05;6;6;5
55549;PMS7003;41397;49.972;18.944;2023-04-25T08:05:07;5;5;3
55549;PMS7003;41397;49.972;18.944;2023-04-25T08:08:14;8;8;7
55549;PMS7003;41397;49.972;18.944;2023-04-25T08:11:16;5;5;3
55549;PMS7003;41397;49.972;18.944;2023-04-25T08:14:17;6;6;4
55549;PMS7003;41397;49.972;18.944;2023-04-25T08:17:19;4;4;2
55549;PMS7003;41397;49.972;18.944;2023-04-25T08:20:20;6;6;3
55549;PMS7003;41397;49.972;18.944;2023-04-25T08:23:22;4;4;3
55549;PMS7003;41397;49.972;18.944;2023-04-25T08:26:24;7;5;5
55549;PMS7003;41397;49.972;18.944;2023-04-25T08:29:26;4;4;4
55549;PMS7003;41397;49.972;18.944;2023-04-25T08:32:29;5;5;3
55549;PMS7003;41397;49.972;18.944;2023-04-25T08:35:30;6;6;4
55549;PMS7003;41397;49.972;18.944;2023-04-25T08:38:33;8;7;5
55549;PMS7003;41397;49.972;18.944;2023-04-25T08:41:36;7;7;5
55549;PMS7003;41397;49.972;18.944;2023-04-25T08:44:38;5;5;4
55549;PMS7003;41397;49.972;18.944;2023-04-25T08:47:40;7;7;6
55549;PMS7003;41397;49.972;18.944;2023-04-25T08:53:52;4;4;4
55549;PMS7003;41397;49.972;18.944;2023-04-25T08:56:54;5;5;4
55549;PMS7003;41397;49.972;18.944;2023-04-25T09:00:02;5;5;4
55549;PMS7003;41397;49.972;18.944;2023-04-25T09:03:06;7;7;5
55549;PMS7003;41397;49.972;18.944;2023-04-25T09:06:09;3;3;3
55549;PMS7003;41397;49.972;18.944;2023-04-25T09:09:12;7;7;5
55549;PMS7003;41397;49.972;18.944;2023-04-25T09:12:14;4;4;3
55549;PMS7003;41397;49.972;18.944;2023-04-25T09:15:16;5;5;5
55549;PMS7003;41397;49.972;18.944;2023-04-25T09:18:22;4;4;4
55549;PMS7003;41397;49.972;18.944;2023-04-25T09:21:28;2;2;2
55549;PMS7003;41397;49.972;18.944;2023-04-25T09:27:49;6;6;4
55549;PMS7003;41397;49.972;18.944;2023-04-25T09:30:56;3;3;3
55549;PMS7003;41397;49.972;18.944;2023-04-25T09:34:01;3;3;3
55549;PMS7003;41397;49.972;18.944;2023-04-25T09:37:03;5;5;3
55549;PMS7003;41397;49.972;18.944;2023-04-25T09:40:06;8;8;7
55549;PMS7003;41397;49.972;18.944;2023-04-25T09:43:14;3;3;2
55549;PMS7003;41397;49.972;18.944;2023-04-25T09:46:32;3;3;3
55549;PMS7003;41397;49.972;18.944;2023-04-25T09:49:39;3;3;3
55549;PMS7003;41397;49.972;18.944;2023-04-25T09:52:46;5;5;4
55549;PMS7003;41397;49.972;18.944;2023-04-25T09:56:20;5;5;3
55549;PMS7003;41397;49.972;18.944;2023-04-25T09:59:24;2;2;2
55549;PMS7003;41397;49.972;18.944;2023-04-25T10:02:26;2;2;2
55549;PMS7003;41397;49.972;18.944;2023-04-25T10:05:43;3;3;2
55549;PMS7003;41397;49.972;18.944;2023-04-25T10:08:46;3;3;2
55549;PMS7003;41397;49.972;18.944;2023-04-25T10:11:52;5;5;4
55549;PMS7003;41397;49.972;18.944;2023-04-25T10:14:57;8;8;6
55549;PMS7003;41397;49.972;18.944;2023-04-25T10:17:59;1;1;1
55549;PMS7003;41397;49.972;18.944;2023-04-25T10:24:19;5;5;4
55549;PMS7003;41397;49.972;18.944;2023-04-25T10:27:21;3;3;2
55549;PMS7003;41397;49.972;18.944;2023-04-25T10:30:23;3;3;3
55549;PMS7003;41397;49.972;18.944;2023-04-25T10:36:49;5;5;4
55549;PMS7003;41397;49.972;18.944;2023-04-25T10:39:59;3;3;3
55549;PMS7003;41397;49.972;18.944;2023-04-25T10:46:57;6;6;4
55549;PMS7003;41397;49.972;18.944;2023-04-25T10:50:07;2;2;1
55549;PMS7003;41397;49.972;18.944;2023-04-25T10:56:25;3;3;3
55549;PMS7003;41397;49.972;18.944;2023-04-25T10:59:28;2;2;1
55549;PMS7003;41397;49.972;18.944;2023-04-25T11:02:29;3;3;2
55549;PMS7003;41397;49.972;18.944;2023-04-25T11:05:34;3;3;2
55549;PMS7003;41397;49.972;18.944;2023-04-25T11:08:47;1;1;1
55549;PMS7003;41397;49.972;18.944;2023-04-25T11:11:55;2;2;1
55549;PMS7003;41397;49.972;18.944;2023-04-25T11:15:00;3;3;1
55549;PMS7003;41397;49.972;18.944;2023-04-25T11:18:15;1;1;0
55549;PMS7003;41397;49.972;18.944;2023-04-25T11:21:18;2;2;2
55549;PMS7003;41397;49.972;18.944;2023-04-25T11:24:25;4;4;4
55549;PMS7003;41397;49.972;18.944;2023-04-25T11:27:31;2;2;1
55549;PMS7003;41397;49.972;18.944;2023-04-25T11:30:33;1;1;1
55549;PMS7003;41397;49.972;18.944;2023-04-25T11:33:37;2;2;2
55549;PMS7003;41397;49.972;18.944;2023-04-25T11:36:41;1;1;1
55549;PMS7003;41397;49.972;18.944;2023-04-25T11:39:43;4;3;3
55549;PMS7003;41397;49.972;18.944;2023-04-25T11:42:47;3;3;3
55549;PMS7003;41397;49.972;18.944;2023-04-25T11:45:49;1;1;1
55549;PMS7003;41397;49.972;18.944;2023-04-25T11:48:52;2;2;1
55549;PMS7003;41397;49.972;18.944;2023-04-25T11:51:56;2;2;2
55549;PMS7003;41397;49.972;18.944;2023-04-25T11:54:58;2;2;2
55549;PMS7003;41397;49.972;18.944;2023-04-25T11:58:00;0;0;0
55549;PMS7003;41397;49.972;18.944;2023-04-25T12:01:02;1;1;1
55549;PMS7003;41397;49.972;18.944;2023-04-25T12:07:17;2;2;1
55549;PMS7003;41397;49.972;18.944;2023-04-25T12:10:23;3;3;3
55549;PMS7003;41397;49.972;18.944;2023-04-25T12:13:26;4;4;3
55549;PMS7003;41397;49.972;18.944;2023-04-25T12:16:29;5;5;3
55549;PMS7003;41397;49.972;18.944;2023-04-25T12:19:34;2;2;1
55549;PMS7003;41397;49.972;18.944;2023-04-25T12:22:37;4;4;4
55549;PMS7003;41397;49.972;18.944;2023-04-25T12:25:42;4;4;2
55549;PMS7003;41397;49.972;18.944;2023-04-25T12:28:47;2;2;1
55549;PMS7003;41397;49.972;18.944;2023-04-25T12:31:49;2;2;2
55549;PMS7003;41397;49.972;18.944;2023-04-25T12:34:52;3;3;2
55549;PMS7003;41397;49.972;18.944;2023-04-25T12:37:53;3;3;3
55549;PMS7003;41397;49.972;18.944;2023-04-25T12:40:55;1;1;1
55549;PMS7003;41397;49.972;18.944;2023-04-25T12:43:58;3;3;2
55549;PMS7003;41397;49.972;18.944;2023-04-25T12:46:59;3;3;2
55549;PMS7003;41397;49.972;18.944;2023-04-25T12:50:01;2;2;1
55549;PMS7003;41397;49.972;18.944;2023-04-25T12:53:03;3;3;2
55549;PMS7003;41397;49.972;18.944;2023-04-25T12:56:04;3;2;2
55549;PMS7003;41397;49.972;18.944;2023-04-25T13:02:17;3;3;3
55549;PMS7003;41397;49.972;18.944;2023-04-25T13:05:18;3;3;2
55549;PMS7003;41397;49.972;18.944;2023-04-25T13:08:20;6;6;4
55549;PMS7003;41397;49.972;18.944;2023-04-25T13:11:21;3;3;2
55549;PMS7003;41397;49.972;18.944;2023-04-25T13:14:23;2;2;2
55549;PMS7003;41397;49.972;18.944;2023-04-25T13:17:24;5;5;4
55549;PMS7003;41397;49.972;18.944;2023-04-25T13:20:26;3;3;2
55549;PMS7003;41397;49.972;18.944;2023-04-25T13:23:28;3;3;2
55549;PMS7003;41397;49.972;18.944;2023-04-25T13:26:31;3;3;3
55549;PMS7003;41397;49.972;18.944;2023-04-25T13:29:32;7;7;6
55549;PMS7003;41397;49.972;18.944;2023-04-25T13:32:37;3;3;2
55549;PMS7003;41397;49.972;18.944;2023-04-25T13:35:39;6;6;5
55549;PMS7003;41397;49.972;18.944;2023-04-25T13:38:40;7;7;5
55549;PMS7003;41397;49.972;18.944;2023-04-25T13:41:48;6;6;5
55549;PMS7003;41397;49.972;18.944;2023-04-25T13:44:53;2;2;2
55549;PMS7003;41397;49.972;18.944;2023-04-25T13:47:54;8;8;4
55549;PMS7003;41397;49.972;18.944;2023-04-25T13:50:56;4;4;3
55549;PMS7003;41397;49.972;18.944;2023-04-25T13:53:57;4;4;4
55549;PMS7003;41397;49.972;18.944;2023-04-25T13:57:00;4;4;3
55549;PMS7003;41397;49.972;18.944;2023-04-25T14:00:03;1;1;1
55549;PMS7003;41397;49.972;18.944;2023-04-25T14:03:10;2;2;2
55549;PMS7003;41397;49.972;18.944;2023-04-25T14:06:12;1;1;1
55549;PMS7003;41397;49.972;18.944;2023-04-25T14:09:14;4;4;4
55549;PMS7003;41397;49.972;18.944;2023-04-25T14:12:16;3;3;2
55549;PMS7003;41397;49.972;18.944;2023-04-25T14:15:18;3;3;2
55549;PMS7003;41397;49.972;18.944;2023-04-25T14:18:21;2;2;2
55549;PMS7003;41397;49.972;18.944;2023-04-25T14:21:22;4;4;3
55549;PMS7003;41397;49.972;18.944;2023-04-25T14:24:24;5;5;4
55549;PMS7003;41397;49.972;18.944;2023-04-25T14:27:27;3;3;2
55549;PMS7003;41397;49.972;18.944;2023-04-25T14:30:28;8;8;5
55549;PMS7003;41397;49.972;18.944;2023-04-25T14:33:30;15;10;4
55549;PMS7003;41397;49.972;18.944;2023-04-25T14:36:32;2;2;2
55549;PMS7003;41397;49.972;18.944;2023-04-25T14:39:34;4;4;3
55549;PMS7003;41397;49.972;18.944;2023-04-25T14:42:38;3;3;2
55549;PMS7003;41397;49.972;18.944;2023-04-25T14:45:40;1;1;1
55549;PMS7003;41397;49.972;18.944;2023-04-25T14:48:42;4;4;3
55549;PMS7003;41397;49.972;18.944;2023-04-25T14:51:43;4;4;4
55549;PMS7003;41397;49.972;18.944;2023-04-25T14:54:45;9;9;7
55549;PMS7003;41397;49.972;18.944;2023-04-25T14:57:46;5;5;4
55549;PMS7003;41397;49.972;18.944;2023-04-25T15:00:48;4;4;3
55549;PMS7003;41397;49.972;18.944;2023-04-25T15:03:49;3;3;2
55549;PMS7003;41397;49.972;18.944;2023-04-25T15:06:52;7;7;6
55549;PMS7003;41397;49.972;18.944;2023-04-25T15:09:54;0;0;0
55549;PMS7003;41397;49.972;18.944;2023-04-25T15:12:57;5;5;4
55549;PMS7003;41397;49.972;18.944;2023-04-25T15:15:59;6;6;5
55549;PMS7003;41397;49.972;18.944;2023-04-25T15:19:01;5;5;4
55549;PMS7003;41397;49.972;18.944;2023-04-25T15:22:04;3;3;2
55549;PMS7003;41397;49.972;18.944;2023-04-25T15:25:08;7;7;5
55549;PMS7003;41397;49.972;18.944;2023-04-25T15:28:11;5;5;4
55549;PMS7003;41397;49.972;18.944;2023-04-25T15:31:16;2;2;2
55549;PMS7003;41397;49.972;18.944;2023-04-25T15:34:18;5;5;5
55549;PMS7003;41397;49.972;18.944;2023-04-25T15:37:26;5;5;4
55549;PMS7003;41397;49.972;18.944;2023-04-25T15:40:27;7;7;6
55549;PMS7003;41397;49.972;18.944;2023-04-25T15:43:29;8;8;7
55549;PMS7003;41397;49.972;18.944;2023-04-25T15:46:30;5;5;5
55549;PMS7003;41397;49.972;18.944;2023-04-25T15:49:33;4;4;3
55549;PMS7003;41397;49.972;18.944;2023-04-25T15:52:35;4;4;3
55549;PMS7003;41397;49.972;18.944;2023-04-25T15:55:38;7;7;6
55549;PMS7003;41397;49.972;18.944;2023-04-25T15:58:39;9;9;6
55549;PMS7003;41397;49.972;18.944;2023-04-25T16:01:41;6;6;4
55549;PMS7003;41397;49.972;18.944;2023-04-25T16:04:43;3;3;3
55549;PMS7003;41397;49.972;18.944;2023-04-25T16:07:48;10;10;6
55549;PMS7003;41397;49.972;18.944;2023-04-25T16:10:53;5;5;5
55549;PMS7003;41397;49.972;18.944;2023-04-25T16:13:55;8;8;6
55549;PMS7003;41397;49.972;18.944;2023-04-25T16:16:56;3;3;3
55549;PMS7003;41397;49.972;18.944;2023-04-25T16:19:58;7;7;6
55549;PMS7003;41397;49.972;18.944;2023-04-25T16:23:09;3;3;3
55549;PMS7003;41397;49.972;18.944;2023-04-25T16:26:11;10;7;6
55549;PMS7003;41397;49.972;18.944;2023-04-25T16:29:15;6;6;5
55549;PMS7003;41397;49.972;18.944;2023-04-25T16:32:19;7;7;5
55549;PMS7003;41397;49.972;18.944;2023-04-25T16:35:20;6;6;5
55549;PMS7003;41397;49.972;18.944;2023-04-25T16:38:25;6;6;5
55549;PMS7003;41397;49.972;18.944;2023-04-25T16:42:51;6;6;5
55549;PMS7003;41397;49.972;18.944;2023-04-25T16:45:56;8;8;8
55549;PMS7003;41397;49.972;18.944;2023-04-25T16:48:57;9;9;7
55549;PMS7003;41397;49.972;18.944;2023-04-25T16:51:59;7;7;6
55549;PMS7003;41397;49.972;18.944;2023-04-25T16:55:01;13;12;8
55549;PMS7003;41397;49.972;18.944;2023-04-25T16:58:09;9;9;7
55549;PMS7003;41397;49.972;18.944;2023-04-25T17:01:14;13;13;11
55549;PMS7003;41397;49.972;18.944;2023-04-25T17:04:19;20;20;15
55549;PMS7003;41397;49.972;18.944;2023-04-25T17:14:32;10;10;9
55549;PMS7003;41397;49.972;18.944;2023-04-25T17:21:14;16;16;12
55549;PMS7003;41397;49.972;18.944;2023-04-25T17:24:46;10;10;7
55549;PMS7003;41397;49.972;18.944;2023-04-25T17:31:37;14;14;12
55549;PMS7003;41397;49.972;18.944;2023-04-25T17:35:02;9;9;8
55549;PMS7003;41397;49.972;18.944;2023-04-25T17:38:07;3;3;0
55549;PMS7003;41397;49.972;18.944;2023-04-25T17:41:17;14;14;13
55549;PMS7003;41397;49.972;18.944;2023-04-25T18:25:00;22;22;17
55549;PMS7003;41397;49.972;18.944;2023-04-25T18:28:31;28;28;22
55549;PMS7003;41397;49.972;18.944;2023-04-25T18:32:03;26;26;19
55549;PMS7003;41397;49.972;18.944;2023-04-25T18:45:48;23;23;15
55549;PMS7003;41397;49.972;18.944;2023-04-25T18:52:20;18;18;14
55549;PMS7003;41397;49.972;18.944;2023-04-25T18:55:22;18;18;13
55549;PMS7003;41397;49.972;18.944;2023-04-25T18:58:24;22;22;15
55549;PMS7003;41397;49.972;18.944;2023-04-25T19:01:26;21;21;13
55549;PMS7003;41397;49.972;18.944;2023-04-25T19:04:27;16;16;11
55549;PMS7003;41397;49.972;18.944;2023-04-25T19:07:29;16;16;14
55549;PMS7003;41397;49.972;18.944;2023-04-25T19:10:32;19;19;14
55549;PMS7003;41397;49.972;18.944;2023-04-25T19:13:34;23;23;14
55549;PMS7003;41397;49.972;18.944;2023-04-25T19:16:36;18;18;15
55549;PMS7003;41397;49.972;18.944;2023-04-25T19:19:46;24;24;16
55549;PMS7003;41397;49.972;18.944;2023-04-25T19:22:48;19;19;16
55549;PMS7003;41397;49.972;18.944;2023-04-25T19:25:55;23;23;14
55549;PMS7003;41397;49.972;18.944;2023-04-25T19:32:12;18;18;15
55549;PMS7003;41397;49.972;18.944;2023-04-25T19:35:14;21;17;11
55549;PMS7003;41397;49.972;18.944;2023-04-25T19:38:15;16;16;10
55549;PMS7003;41397;49.972;18.944;2023-04-25T19:41:17;19;19;14
55549;PMS7003;41397;49.972;18.944;2023-04-25T19:44:18;17;17;11
55549;PMS7003;41397;49.972;18.944;2023-04-25T19:47:19;11;11;9
55549;PMS7003;41397;49.972;18.944;2023-04-25T19:50:21;14;14;10
55549;PMS7003;41397;49.972;18.944;2023-04-25T19:53:23;12;12;10
55549;PMS7003;41397;49.972;18.944;2023-04-25T19:56:24;9;9;7
55549;PMS7003;41397;49.972;18.944;2023-04-25T19:59:27;11;11;9
55549;PMS7003;41397;49.972;18.944;2023-04-25T20:02:28;15;15;11
55549;PMS7003;41397;49.972;18.944;2023-04-25T20:05:30;12;12;8
55549;PMS7003;41397;49.972;18.944;2023-04-25T20:08:34;6;6;5
55549;PMS7003;41397;49.972;18.944;2023-04-25T20:11:36;7;7;5
55549;PMS7003;41397;49.972;18.944;2023-04-25T20:14:41;12;12;9
55549;PMS7003;41397;49.972;18.944;2023-04-25T20:17:49;10;10;9
55549;PMS7003;41397;49.972;18.944;2023-04-25T20:20:52;11;11;8
55549;PMS7003;41397;49.972;18.944;2023-04-25T20:23:54;16;16;9
55549;PMS7003;41397;49.972;18.944;2023-04-25T20:26:56;10;10;6
55549;PMS7003;41397;49.972;18.944;2023-04-25T20:29:58;8;8;5
55549;PMS7003;41397;49.972;18.944;2023-04-25T20:33:04;10;10;6
55549;PMS7003;41397;49.972;18.944;2023-04-25T20:36:08;8;8;7
55549;PMS7003;41397;49.972;18.944;2023-04-25T20:39:09;10;10;7
55549;PMS7003;41397;49.972;18.944;2023-04-25T20:42:11;11;11;9
55549;PMS7003;41397;49.972;18.944;2023-04-25T20:45:13;10;10;8
55549;PMS7003;41397;49.972;18.944;2023-04-25T20:48:16;12;8;6
55549;PMS7003;41397;49.972;18.944;2023-04-25T20:51:17;9;9;7
55549;PMS7003;41397;49.972;18.944;2023-04-25T20:54:20;14;14;11
55549;PMS7003;41397;49.972;18.944;2023-04-25T20:57:23;8;8;6
55549;PMS7003;41397;49.972;18.944;2023-04-25T21:00:25;7;7;7
55549;PMS7003;41397;49.972;18.944;2023-04-25T21:03:28;8;8;6
55549;PMS7003;41397;49.972;18.944;2023-04-25T21:06:30;7;7;6
55549;PMS7003;41397;49.972;18.944;2023-04-25T21:09:40;9;9;7
55549;PMS7003;41397;49.972;18.944;2023-04-25T21:12:49;7;7;5
55549;PMS7003;41397;49.972;18.944;2023-04-25T21:15:52;8;8;7
55549;PMS7003;41397;49.972;18.944;2023-04-25T21:18:53;7;7;7
55549;PMS7003;41397;49.972;18.944;2023-04-25T21:21:55;7;7;5
55549;PMS7003;41397;49.972;18.944;2023-04-25T21:25:06;7;7;6
55549;PMS7003;41397;49.972;18.944;2023-04-25T21:28:10;8;8;7
55549;PMS7003;41397;49.972;18.944;2023-04-25T21:31:11;8;8;6
55549;PMS7003;41397;49.972;18.944;2023-04-25T21:34:14;8;8;6
55549;PMS7003;41397;49.972;18.944;2023-04-25T21:37:15;6;6;5
55549;PMS7003;41397;49.972;18.944;2023-04-25T21:40:17;10;10;7
55549;PMS7003;41397;49.972;18.944;2023-04-25T21:43:19;6;6;5
55549;PMS7003;41397;49.972;18.944;2023-04-25T21:46:21;8;8;6
55549;PMS7003;41397;49.972;18.944;2023-04-25T21:49:27;5;5;4